sensor_id;sensor_type;location;lat;lon;timestamp;P1;durP1;ratioP1;P2;durP2;ratioP2
59442;SDS011;45247;47.466;19.004;2023-04-01T00:01:09;3.33;;;1.58;;
59442;SDS011;45247;47.466;19.004;2023-04-01T00:03:40;3.07;;;1.87;;
59442;SDS011;45247;47.466;19.004;2023-04-01T00:06:09;2.80;;;1.40;;
59442;SDS011;45247;47.466;19.004;2023-04-01T00:08:40;2.65;;;1.60;;
59442;SDS011;45247;47.466;19.004;2023-04-01T00:11:09;2.15;;;1.50;;
59442;SDS011;45247;47.466;19.004;2023-04-01T00:13:38;3.92;;;2.00;;
59442;SDS011;45247;47.466;19.004;2023-04-01T00:16:07;3.97;;;2.65;;
59442;SDS011;45247;47.466;19.004;2023-04-01T00:18:47;3.35;;;1.80;;
59442;SDS011;45247;47.466;19.004;2023-04-01T00:21:16;3.35;;;2.00;;
59442;SDS011;45247;47.466;19.004;2023-04-01T00:23:45;2.10;;;1.38;;
59442;SDS011;45247;47.466;19.004;2023-04-01T00:26:13;4.00;;;1.67;;
59442;SDS011;45247;47.466;19.004;2023-04-01T00:28:46;3.67;;;1.83;;
59442;SDS011;45247;47.466;19.004;2023-04-01T00:31:15;3.67;;;1.63;;
59442;SDS011;45247;47.466;19.004;2023-04-01T00:33:43;2.60;;;1.52;;
59442;SDS011;45247;47.466;19.004;2023-04-01T00:36:12;1.98;;;1.45;;
59442;SDS011;45247;47.466;19.004;2023-04-01T00:38:42;3.33;;;2.10;;
59442;SDS011;45247;47.466;19.004;2023-04-01T00:41:13;3.63;;;2.05;;
59442;SDS011;45247;47.466;19.004;2023-04-01T00:43:42;5.78;;;2.40;;
59442;SDS011;45247;47.466;19.004;2023-04-01T00:46:14;4.68;;;2.22;;
59442;SDS011;45247;47.466;19.004;2023-04-01T00:48:44;3.75;;;2.25;;
59442;SDS011;45247;47.466;19.004;2023-04-01T00:51:16;2.50;;;1.65;;
59442;SDS011;45247;47.466;19.004;2023-04-01T00:53:48;4.10;;;2.25;;
59442;SDS011;45247;47.466;19.004;2023-04-01T00:56:18;3.20;;;2.05;;
59442;SDS011;45247;47.466;19.004;2023-04-01T00:58:51;3.28;;;1.98;;
59442;SDS011;45247;47.466;19.004;2023-04-01T01:01:26;4.40;;;2.00;;
59442;SDS011;45247;47.466;19.004;2023-04-01T01:03:57;3.15;;;2.20;;
59442;SDS011;45247;47.466;19.004;2023-04-01T01:06:38;3.28;;;1.80;;
59442;SDS011;45247;47.466;19.004;2023-04-01T01:09:21;3.67;;;1.90;;
59442;SDS011;45247;47.466;19.004;2023-04-01T01:12:02;3.20;;;1.88;;
59442;SDS011;45247;47.466;19.004;2023-04-01T01:14:48;2.63;;;1.70;;
59442;SDS011;45247;47.466;19.004;2023-04-01T01:17:25;3.28;;;1.60;;
59442;SDS011;45247;47.466;19.004;2023-04-01T01:20:09;2.40;;;1.75;;
59442;SDS011;45247;47.466;19.004;2023-04-01T01:22:55;2.83;;;1.65;;
59442;SDS011;45247;47.466;19.004;2023-04-01T01:25:42;3.25;;;2.15;;
59442;SDS011;45247;47.466;19.004;2023-04-01T01:28:21;3.03;;;2.00;;
59442;SDS011;45247;47.466;19.004;2023-04-01T01:31:03;3.90;;;2.25;;
59442;SDS011;45247;47.466;19.004;2023-04-01T01:33:42;3.65;;;2.10;;
59442;SDS011;45247;47.466;19.004;2023-04-01T01:36:22;2.95;;;2.17;;
59442;SDS011;45247;47.466;19.004;2023-04-01T01:38:54;6.05;;;2.83;;
59442;SDS011;45247;47.466;19.004;2023-04-01T01:41:24;4.70;;;2.88;;
59442;SDS011;45247;47.466;19.004;2023-04-01T01:43:54;5.43;;;2.72;;
59442;SDS011;45247;47.466;19.004;2023-04-01T01:46:26;7.28;;;3.03;;
59442;SDS011;45247;47.466;19.004;2023-04-01T01:48:57;4.47;;;3.42;;
59442;SDS011;45247;47.466;19.004;2023-04-01T01:51:28;4.55;;;3.15;;
59442;SDS011;45247;47.466;19.004;2023-04-01T01:53:57;4.80;;;3.58;;
59442;SDS011;45247;47.466;19.004;2023-04-01T01:56:26;6.25;;;3.97;;
59442;SDS011;45247;47.466;19.004;2023-04-01T01:58:58;5.07;;;3.50;;
59442;SDS011;45247;47.466;19.004;2023-04-01T02:01:31;3.70;;;3.33;;
59442;SDS011;45247;47.466;19.004;2023-04-01T02:04:03;6.35;;;3.70;;
59442;SDS011;45247;47.466;19.004;2023-04-01T02:06:34;4.30;;;3.17;;
59442;SDS011;45247;47.466;19.004;2023-04-01T02:09:06;4.53;;;3.28;;
59442;SDS011;45247;47.466;19.004;2023-04-01T02:11:38;4.28;;;3.50;;
59442;SDS011;45247;47.466;19.004;2023-04-01T02:14:12;4.32;;;2.97;;
59442;SDS011;45247;47.466;19.004;2023-04-01T02:16:43;4.60;;;3.00;;
59442;SDS011;45247;47.466;19.004;2023-04-01T02:19:17;2.65;;;1.95;;
59442;SDS011;45247;47.466;19.004;2023-04-01T02:21:50;3.42;;;2.38;;
59442;SDS011;45247;47.466;19.004;2023-04-01T02:24:23;3.00;;;1.80;;
59442;SDS011;45247;47.466;19.004;2023-04-01T02:26:54;3.03;;;1.50;;
59442;SDS011;45247;47.466;19.004;2023-04-01T02:29:23;2.47;;;1.55;;
59442;SDS011;45247;47.466;19.004;2023-04-01T02:31:52;3.38;;;2.35;;
59442;SDS011;45247;47.466;19.004;2023-04-01T02:34:22;4.05;;;2.33;;
59442;SDS011;45247;47.466;19.004;2023-04-01T02:36:53;4.10;;;2.60;;
59442;SDS011;45247;47.466;19.004;2023-04-01T02:39:23;3.55;;;2.10;;
59442;SDS011;45247;47.466;19.004;2023-04-01T02:41:52;4.78;;;2.47;;
59442;SDS011;45247;47.466;19.004;2023-04-01T02:44:20;3.53;;;2.50;;
59442;SDS011;45247;47.466;19.004;2023-04-01T02:46:48;5.68;;;2.83;;
59442;SDS011;45247;47.466;19.004;2023-04-01T02:49:17;3.03;;;2.20;;
59442;SDS011;45247;47.466;19.004;2023-04-01T02:51:45;3.13;;;2.30;;
59442;SDS011;45247;47.466;19.004;2023-04-01T02:54:14;2.95;;;2.38;;
59442;SDS011;45247;47.466;19.004;2023-04-01T02:56:43;3.88;;;2.15;;
59442;SDS011;45247;47.466;19.004;2023-04-01T02:59:11;3.45;;;2.28;;
59442;SDS011;45247;47.466;19.004;2023-04-01T03:01:40;4.38;;;2.72;;
59442;SDS011;45247;47.466;19.004;2023-04-01T03:04:08;4.50;;;2.45;;
59442;SDS011;45247;47.466;19.004;2023-04-01T03:06:36;4.80;;;2.47;;
59442;SDS011;45247;47.466;19.004;2023-04-01T03:09:04;4.40;;;2.88;;
59442;SDS011;45247;47.466;19.004;2023-04-01T03:11:34;5.72;;;2.80;;
59442;SDS011;45247;47.466;19.004;2023-04-01T03:14:02;3.20;;;2.35;;
59442;SDS011;45247;47.466;19.004;2023-04-01T03:16:30;3.72;;;2.45;;
59442;SDS011;45247;47.466;19.004;2023-04-01T03:18:58;5.90;;;2.67;;
59442;SDS011;45247;47.466;19.004;2023-04-01T03:21:28;5.85;;;2.50;;
59442;SDS011;45247;47.466;19.004;2023-04-01T03:23:56;3.72;;;2.33;;
59442;SDS011;45247;47.466;19.004;2023-04-01T03:26:25;2.55;;;1.92;;
59442;SDS011;45247;47.466;19.004;2023-04-01T03:28:55;2.97;;;2.10;;
59442;SDS011;45247;47.466;19.004;2023-04-01T03:31:23;3.53;;;1.90;;
59442;SDS011;45247;47.466;19.004;2023-04-01T03:33:52;2.97;;;2.00;;
59442;SDS011;45247;47.466;19.004;2023-04-01T03:36:20;3.95;;;1.80;;
59442;SDS011;45247;47.466;19.004;2023-04-01T03:38:48;3.00;;;1.80;;
59442;SDS011;45247;47.466;19.004;2023-04-01T03:41:17;2.78;;;1.50;;
59442;SDS011;45247;47.466;19.004;2023-04-01T03:43:46;2.10;;;1.30;;
59442;SDS011;45247;47.466;19.004;2023-04-01T03:46:18;3.03;;;1.40;;
59442;SDS011;45247;47.466;19.004;2023-04-01T03:48:47;2.00;;;1.08;;
59442;SDS011;45247;47.466;19.004;2023-04-01T03:51:15;2.97;;;1.10;;
59442;SDS011;45247;47.466;19.004;2023-04-01T03:53:43;2.40;;;1.25;;
59442;SDS011;45247;47.466;19.004;2023-04-01T03:56:11;2.15;;;1.23;;
59442;SDS011;45247;47.466;19.004;2023-04-01T03:58:39;2.92;;;1.40;;
59442;SDS011;45247;47.466;19.004;2023-04-01T04:01:14;1.80;;;1.20;;
59442;SDS011;45247;47.466;19.004;2023-04-01T04:03:48;2.20;;;1.20;;
59442;SDS011;45247;47.466;19.004;2023-04-01T04:06:18;2.35;;;1.48;;
59442;SDS011;45247;47.466;19.004;2023-04-01T04:08:46;3.67;;;1.13;;
59442;SDS011;45247;47.466;19.004;2023-04-01T04:11:15;2.40;;;1.20;;
59442;SDS011;45247;47.466;19.004;2023-04-01T04:13:43;3.63;;;1.20;;
59442;SDS011;45247;47.466;19.004;2023-04-01T04:16:11;2.55;;;1.20;;
59442;SDS011;45247;47.466;19.004;2023-04-01T04:18:41;2.95;;;1.48;;
59442;SDS011;45247;47.466;19.004;2023-04-01T04:21:11;4.47;;;1.27;;
59442;SDS011;45247;47.466;19.004;2023-04-01T04:23:41;2.58;;;1.20;;
59442;SDS011;45247;47.466;19.004;2023-04-01T04:26:10;2.10;;;1.13;;
59442;SDS011;45247;47.466;19.004;2023-04-01T04:28:40;2.75;;;1.38;;
59442;SDS011;45247;47.466;19.004;2023-04-01T04:31:09;6.60;;;1.33;;
59442;SDS011;45247;47.466;19.004;2023-04-01T04:33:37;2.20;;;1.30;;
59442;SDS011;45247;47.466;19.004;2023-04-01T04:36:07;1.88;;;1.20;;
59442;SDS011;45247;47.466;19.004;2023-04-01T04:38:35;2.10;;;1.25;;
59442;SDS011;45247;47.466;19.004;2023-04-01T04:41:07;2.90;;;1.25;;
59442;SDS011;45247;47.466;19.004;2023-04-01T04:43:38;1.50;;;1.20;;
59442;SDS011;45247;47.466;19.004;2023-04-01T04:46:06;2.42;;;1.73;;
59442;SDS011;45247;47.466;19.004;2023-04-01T04:48:35;4.07;;;1.42;;
59442;SDS011;45247;47.466;19.004;2023-04-01T04:51:03;2.25;;;1.25;;
59442;SDS011;45247;47.466;19.004;2023-04-01T04:53:33;4.55;;;1.55;;
59442;SDS011;45247;47.466;19.004;2023-04-01T04:56:01;2.55;;;0.90;;
59442;SDS011;45247;47.466;19.004;2023-04-01T04:58:30;3.10;;;1.33;;
59442;SDS011;45247;47.466;19.004;2023-04-01T05:00:58;1.88;;;1.13;;
59442;SDS011;45247;47.466;19.004;2023-04-01T05:03:27;3.10;;;1.17;;
59442;SDS011;45247;47.466;19.004;2023-04-01T05:05:55;2.08;;;1.20;;
59442;SDS011;45247;47.466;19.004;2023-04-01T05:08:23;3.00;;;1.20;;
59442;SDS011;45247;47.466;19.004;2023-04-01T05:10:53;3.70;;;1.15;;
59442;SDS011;45247;47.466;19.004;2023-04-01T05:13:21;2.58;;;1.40;;
59442;SDS011;45247;47.466;19.004;2023-04-01T05:15:49;3.50;;;1.25;;
59442;SDS011;45247;47.466;19.004;2023-04-01T05:18:18;2.97;;;1.10;;
59442;SDS011;45247;47.466;19.004;2023-04-01T05:20:47;2.60;;;1.30;;
59442;SDS011;45247;47.466;19.004;2023-04-01T05:23:15;2.15;;;1.08;;
59442;SDS011;45247;47.466;19.004;2023-04-01T05:25:43;2.90;;;1.20;;
59442;SDS011;45247;47.466;19.004;2023-04-01T05:28:14;1.10;;;0.80;;
59442;SDS011;45247;47.466;19.004;2023-04-01T05:30:42;2.35;;;0.80;;
59442;SDS011;45247;47.466;19.004;2023-04-01T05:33:11;2.28;;;1.00;;
59442;SDS011;45247;47.466;19.004;2023-04-01T05:35:41;2.47;;;1.25;;
59442;SDS011;45247;47.466;19.004;2023-04-01T05:38:09;1.92;;;1.15;;
59442;SDS011;45247;47.466;19.004;2023-04-01T05:40:37;1.75;;;0.88;;
59442;SDS011;45247;47.466;19.004;2023-04-01T05:43:05;2.00;;;1.20;;
59442;SDS011;45247;47.466;19.004;2023-04-01T05:45:35;1.55;;;1.00;;
59442;SDS011;45247;47.466;19.004;2023-04-01T05:48:03;1.45;;;0.95;;
59442;SDS011;45247;47.466;19.004;2023-04-01T05:50:32;1.17;;;0.90;;
59442;SDS011;45247;47.466;19.004;2023-04-01T05:53:01;1.67;;;1.00;;
59442;SDS011;45247;47.466;19.004;2023-04-01T05:55:29;2.30;;;1.35;;
59442;SDS011;45247;47.466;19.004;2023-04-01T05:57:58;2.97;;;1.15;;
59442;SDS011;45247;47.466;19.004;2023-04-01T06:00:26;1.38;;;0.90;;
59442;SDS011;45247;47.466;19.004;2023-04-01T06:02:56;2.78;;;1.20;;
59442;SDS011;45247;47.466;19.004;2023-04-01T06:05:27;1.23;;;0.88;;
59442;SDS011;45247;47.466;19.004;2023-04-01T06:07:58;2.67;;;1.23;;
59442;SDS011;45247;47.466;19.004;2023-04-01T06:10:33;2.53;;;1.33;;
59442;SDS011;45247;47.466;19.004;2023-04-01T06:13:09;2.13;;;1.08;;
59442;SDS011;45247;47.466;19.004;2023-04-01T06:15:48;1.75;;;1.00;;
59442;SDS011;45247;47.466;19.004;2023-04-01T06:18:41;2.03;;;1.48;;
59442;SDS011;45247;47.466;19.004;2023-04-01T06:21:33;2.75;;;1.40;;
59442;SDS011;45247;47.466;19.004;2023-04-01T06:24:24;1.70;;;1.02;;
59442;SDS011;45247;47.466;19.004;2023-04-01T06:27:07;3.67;;;1.17;;
59442;SDS011;45247;47.466;19.004;2023-04-01T06:32:56;1.83;;;0.98;;
59442;SDS011;45247;47.466;19.004;2023-04-01T06:35:43;2.08;;;1.10;;
59442;SDS011;45247;47.466;19.004;2023-04-01T06:38:30;3.97;;;1.10;;
59442;SDS011;45247;47.466;19.004;2023-04-01T06:41:47;4.03;;;1.00;;
59442;SDS011;45247;47.466;19.004;2023-04-01T06:44:35;2.50;;;1.30;;
59442;SDS011;45247;47.466;19.004;2023-04-01T06:47:18;2.58;;;1.10;;
59442;SDS011;45247;47.466;19.004;2023-04-01T06:49:57;2.83;;;1.05;;
59442;SDS011;45247;47.466;19.004;2023-04-01T06:52:36;3.42;;;1.10;;
59442;SDS011;45247;47.466;19.004;2023-04-01T06:55:16;5.53;;;1.20;;
59442;SDS011;45247;47.466;19.004;2023-04-01T06:57:52;2.30;;;1.20;;
59442;SDS011;45247;47.466;19.004;2023-04-01T07:00:27;1.65;;;1.00;;
59442;SDS011;45247;47.466;19.004;2023-04-01T07:03:00;1.60;;;0.90;;
59442;SDS011;45247;47.466;19.004;2023-04-01T07:05:34;16.08;;;1.73;;
59442;SDS011;45247;47.466;19.004;2023-04-01T07:08:06;4.18;;;1.08;;
59442;SDS011;45247;47.466;19.004;2023-04-01T07:10:43;2.13;;;1.10;;
59442;SDS011;45247;47.466;19.004;2023-04-01T07:13:17;2.10;;;1.10;;
59442;SDS011;45247;47.466;19.004;2023-04-01T07:15:54;2.80;;;1.10;;
59442;SDS011;45247;47.466;19.004;2023-04-01T07:18:29;2.08;;;1.00;;
59442;SDS011;45247;47.466;19.004;2023-04-01T07:21:03;6.03;;;1.40;;
59442;SDS011;45247;47.466;19.004;2023-04-01T07:23:40;1.80;;;0.90;;
59442;SDS011;45247;47.466;19.004;2023-04-01T07:26:16;1.88;;;1.10;;
59442;SDS011;45247;47.466;19.004;2023-04-01T07:28:47;1.60;;;0.80;;
59442;SDS011;45247;47.466;19.004;2023-04-01T07:31:19;1.35;;;0.75;;
59442;SDS011;45247;47.466;19.004;2023-04-01T07:33:59;2.10;;;0.90;;
59442;SDS011;45247;47.466;19.004;2023-04-01T07:36:34;3.63;;;1.02;;
59442;SDS011;45247;47.466;19.004;2023-04-01T07:39:15;3.90;;;0.98;;
59442;SDS011;45247;47.466;19.004;2023-04-01T07:41:55;2.40;;;1.00;;
59442;SDS011;45247;47.466;19.004;2023-04-01T07:44:34;2.85;;;1.00;;
59442;SDS011;45247;47.466;19.004;2023-04-01T07:50:04;3.88;;;0.82;;
59442;SDS011;45247;47.466;19.004;2023-04-01T07:52:40;3.15;;;1.48;;
59442;SDS011;45247;47.466;19.004;2023-04-01T07:55:18;3.60;;;1.10;;
59442;SDS011;45247;47.466;19.004;2023-04-01T07:57:52;4.50;;;0.82;;
59442;SDS011;45247;47.466;19.004;2023-04-01T08:00:33;2.13;;;1.30;;
59442;SDS011;45247;47.466;19.004;2023-04-01T08:03:14;3.92;;;1.40;;
59442;SDS011;45247;47.466;19.004;2023-04-01T08:05:51;1.45;;;0.95;;
59442;SDS011;45247;47.466;19.004;2023-04-01T08:08:26;2.90;;;1.30;;
59442;SDS011;45247;47.466;19.004;2023-04-01T08:11:04;2.10;;;0.90;;
59442;SDS011;45247;47.466;19.004;2023-04-01T08:13:42;4.38;;;2.40;;
59442;SDS011;45247;47.466;19.004;2023-04-01T08:16:20;2.08;;;0.90;;
59442;SDS011;45247;47.466;19.004;2023-04-01T08:19:00;2.55;;;1.30;;
59442;SDS011;45247;47.466;19.004;2023-04-01T08:21:47;3.00;;;0.98;;
59442;SDS011;45247;47.466;19.004;2023-04-01T08:24:25;3.40;;;1.10;;
59442;SDS011;45247;47.466;19.004;2023-04-01T08:27:16;3.40;;;1.10;;
59442;SDS011;45247;47.466;19.004;2023-04-01T08:29:53;1.92;;;0.70;;
59442;SDS011;45247;47.466;19.004;2023-04-01T08:32:28;2.70;;;0.70;;
59442;SDS011;45247;47.466;19.004;2023-04-01T08:35:03;2.35;;;0.88;;
59442;SDS011;45247;47.466;19.004;2023-04-01T08:37:38;2.03;;;0.85;;
59442;SDS011;45247;47.466;19.004;2023-04-01T08:40:20;1.75;;;0.60;;
59442;SDS011;45247;47.466;19.004;2023-04-01T08:43:05;2.70;;;1.40;;
59442;SDS011;45247;47.466;19.004;2023-04-01T08:45:44;2.40;;;0.98;;
59442;SDS011;45247;47.466;19.004;2023-04-01T08:51:33;4.55;;;2.05;;
59442;SDS011;45247;47.466;19.004;2023-04-01T08:54:44;2.05;;;0.80;;
59442;SDS011;45247;47.466;19.004;2023-04-01T08:57:25;2.47;;;0.73;;
59442;SDS011;45247;47.466;19.004;2023-04-01T09:00:13;2.03;;;0.77;;
59442;SDS011;45247;47.466;19.004;2023-04-01T09:06:24;2.17;;;0.93;;
59442;SDS011;45247;47.466;19.004;2023-04-01T09:09:09;1.00;;;0.70;;
59442;SDS011;45247;47.466;19.004;2023-04-01T09:12:02;1.60;;;0.80;;
59442;SDS011;45247;47.466;19.004;2023-04-01T09:14:52;4.78;;;1.38;;
59442;SDS011;45247;47.466;19.004;2023-04-01T09:20:41;4.38;;;1.08;;
59442;SDS011;45247;47.466;19.004;2023-04-01T09:23:23;2.90;;;0.90;;
59442;SDS011;45247;47.466;19.004;2023-04-01T09:26:04;3.08;;;1.35;;
59442;SDS011;45247;47.466;19.004;2023-04-01T09:28:51;3.90;;;1.10;;
59442;SDS011;45247;47.466;19.004;2023-04-01T09:31:39;3.03;;;1.30;;
59442;SDS011;45247;47.466;19.004;2023-04-01T09:34:25;1.88;;;0.90;;
59442;SDS011;45247;47.466;19.004;2023-04-01T09:37:19;2.92;;;1.00;;
59442;SDS011;45247;47.466;19.004;2023-04-01T09:39:54;2.78;;;0.90;;
59442;SDS011;45247;47.466;19.004;2023-04-01T09:42:44;4.00;;;1.10;;
59442;SDS011;45247;47.466;19.004;2023-04-01T09:45:31;1.73;;;1.00;;
59442;SDS011;45247;47.466;19.004;2023-04-01T09:48:14;1.48;;;0.73;;
59442;SDS011;45247;47.466;19.004;2023-04-01T09:50:51;2.38;;;0.90;;
59442;SDS011;45247;47.466;19.004;2023-04-01T09:53:36;2.10;;;1.00;;
59442;SDS011;45247;47.466;19.004;2023-04-01T09:59:32;1.58;;;1.00;;
59442;SDS011;45247;47.466;19.004;2023-04-01T10:05:24;2.40;;;1.00;;
59442;SDS011;45247;47.466;19.004;2023-04-01T10:17:58;2.38;;;1.08;;
59442;SDS011;45247;47.466;19.004;2023-04-01T10:26:53;2.83;;;1.10;;
59442;SDS011;45247;47.466;19.004;2023-04-01T10:29:57;3.05;;;1.00;;
59442;SDS011;45247;47.466;19.004;2023-04-01T10:42:39;2.45;;;0.90;;
59442;SDS011;45247;47.466;19.004;2023-04-01T10:45:52;3.38;;;1.08;;
59442;SDS011;45247;47.466;19.004;2023-04-01T10:58:50;2.55;;;0.90;;
59442;SDS011;45247;47.466;19.004;2023-04-01T11:11:02;4.15;;;0.98;;
59442;SDS011;45247;47.466;19.004;2023-04-01T11:20:44;0.70;;;0.60;;
59442;SDS011;45247;47.466;19.004;2023-04-01T11:23:27;3.00;;;0.98;;
59442;SDS011;45247;47.466;19.004;2023-04-01T11:26:12;5.25;;;1.52;;
59442;SDS011;45247;47.466;19.004;2023-04-01T11:28:53;1.80;;;0.80;;
59442;SDS011;45247;47.466;19.004;2023-04-01T11:31:43;2.83;;;0.98;;
59442;SDS011;45247;47.466;19.004;2023-04-01T11:37:27;2.88;;;0.85;;
59442;SDS011;45247;47.466;19.004;2023-04-01T11:40:07;2.20;;;0.60;;
59442;SDS011;45247;47.466;19.004;2023-04-01T11:42:46;3.33;;;1.15;;
59442;SDS011;45247;47.466;19.004;2023-04-01T11:45:29;3.10;;;1.25;;
59442;SDS011;45247;47.466;19.004;2023-04-01T11:48:13;2.38;;;0.63;;
59442;SDS011;45247;47.466;19.004;2023-04-01T11:50:57;2.97;;;0.80;;
59442;SDS011;45247;47.466;19.004;2023-04-01T11:53:56;1.90;;;0.95;;
59442;SDS011;45247;47.466;19.004;2023-04-01T11:56:36;2.50;;;0.80;;
59442;SDS011;45247;47.466;19.004;2023-04-01T11:59:32;1.77;;;0.80;;
59442;SDS011;45247;47.466;19.004;2023-04-01T12:02:22;3.08;;;0.80;;
59442;SDS011;45247;47.466;19.004;2023-04-01T12:08:04;2.90;;;0.90;;
59442;SDS011;45247;47.466;19.004;2023-04-01T12:10:46;1.90;;;0.70;;
59442;SDS011;45247;47.466;19.004;2023-04-01T12:13:24;1.90;;;0.90;;
59442;SDS011;45247;47.466;19.004;2023-04-01T12:16:11;2.03;;;0.80;;
59442;SDS011;45247;47.466;19.004;2023-04-01T12:18:52;5.10;;;0.85;;
59442;SDS011;45247;47.466;19.004;2023-04-01T12:21:25;1.80;;;1.00;;
59442;SDS011;45247;47.466;19.004;2023-04-01T12:24:05;2.85;;;0.80;;
59442;SDS011;45247;47.466;19.004;2023-04-01T12:27:11;2.15;;;0.70;;
59442;SDS011;45247;47.466;19.004;2023-04-01T12:29:59;2.38;;;0.93;;
59442;SDS011;45247;47.466;19.004;2023-04-01T12:32:49;2.92;;;1.10;;
59442;SDS011;45247;47.466;19.004;2023-04-01T12:35:30;2.47;;;0.85;;
59442;SDS011;45247;47.466;19.004;2023-04-01T12:38:15;2.70;;;0.90;;
59442;SDS011;45247;47.466;19.004;2023-04-01T12:40:55;3.72;;;1.23;;
59442;SDS011;45247;47.466;19.004;2023-04-01T12:44:02;2.03;;;0.98;;
59442;SDS011;45247;47.466;19.004;2023-04-01T12:46:54;1.08;;;0.70;;
59442;SDS011;45247;47.466;19.004;2023-04-01T12:49:42;1.65;;;0.90;;
59442;SDS011;45247;47.466;19.004;2023-04-01T12:52:22;1.40;;;0.70;;
59442;SDS011;45247;47.466;19.004;2023-04-01T12:58:05;2.53;;;0.80;;
59442;SDS011;45247;47.466;19.004;2023-04-01T13:00:48;2.22;;;1.00;;
59442;SDS011;45247;47.466;19.004;2023-04-01T13:06:32;1.73;;;0.90;;
59442;SDS011;45247;47.466;19.004;2023-04-01T13:09:13;2.20;;;0.80;;
59442;SDS011;45247;47.466;19.004;2023-04-01T13:11:54;2.85;;;0.88;;
59442;SDS011;45247;47.466;19.004;2023-04-01T13:14:43;2.22;;;0.80;;
59442;SDS011;45247;47.466;19.004;2023-04-01T13:17:28;3.40;;;0.80;;
59442;SDS011;45247;47.466;19.004;2023-04-01T13:20:06;1.77;;;0.80;;
59442;SDS011;45247;47.466;19.004;2023-04-01T13:22:50;1.73;;;0.75;;
59442;SDS011;45247;47.466;19.004;2023-04-01T13:25:31;1.08;;;0.88;;
59442;SDS011;45247;47.466;19.004;2023-04-01T13:28:08;2.78;;;1.15;;
59442;SDS011;45247;47.466;19.004;2023-04-01T13:30:44;2.50;;;0.85;;
59442;SDS011;45247;47.466;19.004;2023-04-01T13:33:27;2.40;;;1.25;;
59442;SDS011;45247;47.466;19.004;2023-04-01T13:36:08;2.58;;;0.82;;
59442;SDS011;45247;47.466;19.004;2023-04-01T13:38:58;1.25;;;0.80;;
59442;SDS011;45247;47.466;19.004;2023-04-01T13:41:43;1.40;;;1.00;;
59442;SDS011;45247;47.466;19.004;2023-04-01T13:44:26;4.50;;;0.90;;
59442;SDS011;45247;47.466;19.004;2023-04-01T13:47:09;2.13;;;0.90;;
59442;SDS011;45247;47.466;19.004;2023-04-01T13:49:59;2.85;;;1.00;;
59442;SDS011;45247;47.466;19.004;2023-04-01T13:52:54;1.95;;;0.80;;
59442;SDS011;45247;47.466;19.004;2023-04-01T13:55:46;1.58;;;0.80;;
59442;SDS011;45247;47.466;19.004;2023-04-01T13:58:38;1.33;;;0.88;;
59442;SDS011;45247;47.466;19.004;2023-04-01T14:01:19;1.60;;;0.73;;
59442;SDS011;45247;47.466;19.004;2023-04-01T14:03:57;2.63;;;0.82;;
59442;SDS011;45247;47.466;19.004;2023-04-01T14:06:43;2.22;;;1.05;;
59442;SDS011;45247;47.466;19.004;2023-04-01T14:09:24;1.77;;;0.68;;
59442;SDS011;45247;47.466;19.004;2023-04-01T14:12:12;2.97;;;0.80;;
59442;SDS011;45247;47.466;19.004;2023-04-01T14:14:53;2.00;;;1.10;;
59442;SDS011;45247;47.466;19.004;2023-04-01T14:17:35;0.95;;;0.80;;
59442;SDS011;45247;47.466;19.004;2023-04-01T14:20:22;2.70;;;1.08;;
59442;SDS011;45247;47.466;19.004;2023-04-01T14:23:04;1.27;;;0.60;;
59442;SDS011;45247;47.466;19.004;2023-04-01T14:28:55;1.17;;;0.73;;
59442;SDS011;45247;47.466;19.004;2023-04-01T14:31:34;0.88;;;0.50;;
59442;SDS011;45247;47.466;19.004;2023-04-01T14:34:11;2.58;;;0.55;;
59442;SDS011;45247;47.466;19.004;2023-04-01T14:36:51;0.73;;;0.50;;
59442;SDS011;45247;47.466;19.004;2023-04-01T14:39:46;2.95;;;0.63;;
59442;SDS011;45247;47.466;19.004;2023-04-01T14:42:35;0.88;;;0.63;;
59442;SDS011;45247;47.466;19.004;2023-04-01T14:45:30;1.27;;;0.77;;
59442;SDS011;45247;47.466;19.004;2023-04-01T14:48:17;1.30;;;0.80;;
59442;SDS011;45247;47.466;19.004;2023-04-01T14:50:53;3.85;;;0.98;;
59442;SDS011;45247;47.466;19.004;2023-04-01T14:53:26;2.83;;;1.00;;
59442;SDS011;45247;47.466;19.004;2023-04-01T14:55:59;2.20;;;1.00;;
59442;SDS011;45247;47.466;19.004;2023-04-01T14:58:39;2.83;;;1.08;;
59442;SDS011;45247;47.466;19.004;2023-04-01T15:01:20;5.03;;;1.00;;
59442;SDS011;45247;47.466;19.004;2023-04-01T15:04:05;1.47;;;0.97;;
59442;SDS011;45247;47.466;19.004;2023-04-01T15:06:55;2.17;;;0.90;;
59442;SDS011;45247;47.466;19.004;2023-04-01T15:09:36;1.10;;;0.82;;
59442;SDS011;45247;47.466;19.004;2023-04-01T15:12:16;3.28;;;0.93;;
59442;SDS011;45247;47.466;19.004;2023-04-01T15:14:57;0.88;;;0.70;;
59442;SDS011;45247;47.466;19.004;2023-04-01T15:17:42;1.42;;;0.80;;
59442;SDS011;45247;47.466;19.004;2023-04-01T15:20:24;1.92;;;0.80;;
59442;SDS011;45247;47.466;19.004;2023-04-01T15:28:52;0.82;;;0.70;;
59442;SDS011;45247;47.466;19.004;2023-04-01T15:31:34;2.00;;;0.82;;
59442;SDS011;45247;47.466;19.004;2023-04-01T15:34:17;2.03;;;0.80;;
59442;SDS011;45247;47.466;19.004;2023-04-01T15:36:56;1.05;;;0.60;;
59442;SDS011;45247;47.466;19.004;2023-04-01T15:39:30;1.08;;;0.55;;
59442;SDS011;45247;47.466;19.004;2023-04-01T15:42:16;1.42;;;0.70;;
59442;SDS011;45247;47.466;19.004;2023-04-01T15:45:01;0.63;;;0.47;;
59442;SDS011;45247;47.466;19.004;2023-04-01T15:47:41;1.42;;;0.50;;
59442;SDS011;45247;47.466;19.004;2023-04-01T15:50:26;0.75;;;0.55;;
59442;SDS011;45247;47.466;19.004;2023-04-01T15:53:08;1.95;;;0.63;;
59442;SDS011;45247;47.466;19.004;2023-04-01T15:55:47;0.63;;;0.50;;
59442;SDS011;45247;47.466;19.004;2023-04-01T16:01:18;0.60;;;0.50;;
59442;SDS011;45247;47.466;19.004;2023-04-01T16:03:56;1.30;;;0.80;;
59442;SDS011;45247;47.466;19.004;2023-04-01T16:06:53;0.95;;;0.60;;
59442;SDS011;45247;47.466;19.004;2023-04-01T16:12:29;0.55;;;0.38;;
59442;SDS011;45247;47.466;19.004;2023-04-01T16:15:09;0.82;;;0.60;;
59442;SDS011;45247;47.466;19.004;2023-04-01T16:17:55;1.23;;;0.52;;
59442;SDS011;45247;47.466;19.004;2023-04-01T16:20:42;0.85;;;0.55;;
59442;SDS011;45247;47.466;19.004;2023-04-01T16:23:16;0.40;;;0.40;;
59442;SDS011;45247;47.466;19.004;2023-04-01T16:25:52;0.40;;;0.40;;
59442;SDS011;45247;47.466;19.004;2023-04-01T16:28:27;0.43;;;0.43;;
59442;SDS011;45247;47.466;19.004;2023-04-01T16:31:03;0.80;;;0.40;;
59442;SDS011;45247;47.466;19.004;2023-04-01T16:33:37;1.35;;;0.70;;
59442;SDS011;45247;47.466;19.004;2023-04-01T16:36:20;1.38;;;0.50;;
59442;SDS011;45247;47.466;19.004;2023-04-01T16:39:06;0.60;;;0.60;;
59442;SDS011;45247;47.466;19.004;2023-04-01T16:41:42;3.70;;;0.70;;
59442;SDS011;45247;47.466;19.004;2023-04-01T16:44:18;2.15;;;0.57;;
59442;SDS011;45247;47.466;19.004;2023-04-01T16:46:50;0.75;;;0.57;;
59442;SDS011;45247;47.466;19.004;2023-04-01T16:49:25;0.80;;;0.50;;
59442;SDS011;45247;47.466;19.004;2023-04-01T16:52:04;0.88;;;0.57;;
59442;SDS011;45247;47.466;19.004;2023-04-01T16:54:44;2.20;;;0.70;;
59442;SDS011;45247;47.466;19.004;2023-04-01T16:57:19;0.88;;;0.57;;
59442;SDS011;45247;47.466;19.004;2023-04-01T16:59:54;1.42;;;0.60;;
59442;SDS011;45247;47.466;19.004;2023-04-01T17:02:31;0.57;;;0.43;;
59442;SDS011;45247;47.466;19.004;2023-04-01T17:05:08;1.75;;;0.68;;
59442;SDS011;45247;47.466;19.004;2023-04-01T17:07:46;0.85;;;0.60;;
59442;SDS011;45247;47.466;19.004;2023-04-01T17:10:27;3.13;;;1.08;;
59442;SDS011;45247;47.466;19.004;2023-04-01T17:13:13;0.52;;;0.52;;
59442;SDS011;45247;47.466;19.004;2023-04-01T17:15:55;1.98;;;0.60;;